sensor_id;sensor_type;location;lat;lon;timestamp;temperature;humidity
44817;DHT22;30529;53.570;9.964;2023-03-24T00:00:46;11.20;99.90
44817;DHT22;30529;53.570;9.964;2023-03-24T00:03:12;11.20;99.90
44817;DHT22;30529;53.570;9.964;2023-03-24T00:05:41;11.30;99.90
44817;DHT22;30529;53.570;9.964;2023-03-24T00:08:08;11.30;99.90
44817;DHT22;30529;53.570;9.964;2023-03-24T00:10:35;11.30;99.90
44817;DHT22;30529;53.570;9.964;2023-03-24T00:13:02;11.40;99.90
44817;DHT22;30529;53.570;9.964;2023-03-24T00:15:28;11.40;99.90
44817;DHT22;30529;53.570;9.964;2023-03-24T00:17:54;11.40;99.90
44817;DHT22;30529;53.570;9.964;2023-03-24T00:20:23;11.50;99.90
44817;DHT22;30529;53.570;9.964;2023-03-24T00:22:53;11.50;99.90
44817;DHT22;30529;53.570;9.964;2023-03-24T00:25:25;11.40;99.90
44817;DHT22;30529;53.570;9.964;2023-03-24T00:27:58;11.40;99.90
44817;DHT22;30529;53.570;9.964;2023-03-24T00:30:25;11.40;99.90
44817;DHT22;30529;53.570;9.964;2023-03-24T00:32:51;11.50;99.90
44817;DHT22;30529;53.570;9.964;2023-03-24T00:35:18;11.40;99.90
44817;DHT22;30529;53.570;9.964;2023-03-24T00:37:44;11.50;99.90
44817;DHT22;30529;53.570;9.964;2023-03-24T00:40:13;11.40;99.90
44817;DHT22;30529;53.570;9.964;2023-03-24T00:42:42;11.50;99.90
44817;DHT22;30529;53.570;9.964;2023-03-24T00:45:12;11.40;99.90
44817;DHT22;30529;53.570;9.964;2023-03-24T00:47:39;11.40;99.90
44817;DHT22;30529;53.570;9.964;2023-03-24T00:50:10;11.50;99.90
44817;DHT22;30529;53.570;9.964;2023-03-24T00:52:36;11.40;99.90
44817;DHT22;30529;53.570;9.964;2023-03-24T00:55:04;11.40;99.90
44817;DHT22;30529;53.570;9.964;2023-03-24T00:57:31;11.40;99.90
44817;DHT22;30529;53.570;9.964;2023-03-24T01:00:02;11.40;99.90
44817;DHT22;30529;53.570;9.964;2023-03-24T01:02:37;11.40;99.90
44817;DHT22;30529;53.570;9.964;2023-03-24T01:05:03;11.30;99.90
44817;DHT22;30529;53.570;9.964;2023-03-24T01:07:29;11.30;99.90
44817;DHT22;30529;53.570;9.964;2023-03-24T01:09:56;11.30;99.90
44817;DHT22;30529;53.570;9.964;2023-03-24T01:12:33;11.30;99.90
44817;DHT22;30529;53.570;9.964;2023-03-24T01:15:05;11.20;99.90
44817;DHT22;30529;53.570;9.964;2023-03-24T01:17:31;11.20;99.90
44817;DHT22;30529;53.570;9.964;2023-03-24T01:19:59;11.30;99.90
44817;DHT22;30529;53.570;9.964;2023-03-24T01:22:27;11.30;99.90
44817;DHT22;30529;53.570;9.964;2023-03-24T01:24:55;11.20;99.90
44817;DHT22;30529;53.570;9.964;2023-03-24T01:27:21;11.20;99.90
44817;DHT22;30529;53.570;9.964;2023-03-24T01:29:47;11.20;99.90
44817;DHT22;30529;53.570;9.964;2023-03-24T01:32:14;11.20;99.90
44817;DHT22;30529;53.570;9.964;2023-03-24T01:34:40;11.20;99.90
44817;DHT22;30529;53.570;9.964;2023-03-24T01:37:05;11.20;99.90
44817;DHT22;30529;53.570;9.964;2023-03-24T01:39:31;11.20;99.90
44817;DHT22;30529;53.570;9.964;2023-03-24T01:41:58;11.10;99.90
44817;DHT22;30529;53.570;9.964;2023-03-24T01:46:52;11.00;99.90
44817;DHT22;30529;53.570;9.964;2023-03-24T01:49:19;11.10;99.90
44817;DHT22;30529;53.570;9.964;2023-03-24T01:51:49;11.00;99.90
44817;DHT22;30529;53.570;9.964;2023-03-24T01:54:23;11.00;99.90
44817;DHT22;30529;53.570;9.964;2023-03-24T01:59:36;11.00;99.90
44817;DHT22;30529;53.570;9.964;2023-03-24T02:02:04;11.00;99.90
44817;DHT22;30529;53.570;9.964;2023-03-24T02:04:38;11.00;99.90
44817;DHT22;30529;53.570;9.964;2023-03-24T02:10:05;10.90;99.90
44817;DHT22;30529;53.570;9.964;2023-03-24T02:12:32;10.90;99.90
44817;DHT22;30529;53.570;9.964;2023-03-24T02:14:59;11.00;99.90
44817;DHT22;30529;53.570;9.964;2023-03-24T02:20:29;10.90;99.90
44817;DHT22;30529;53.570;9.964;2023-03-24T02:31:17;10.90;99.90
44817;DHT22;30529;53.570;9.964;2023-03-24T02:34:15;10.80;99.90
44817;DHT22;30529;53.570;9.964;2023-03-24T02:36:49;10.90;99.90
44817;DHT22;30529;53.570;9.964;2023-03-24T02:42:40;10.90;99.90
44817;DHT22;30529;53.570;9.964;2023-03-24T02:45:31;10.90;99.90
44817;DHT22;30529;53.570;9.964;2023-03-24T02:48:04;10.90;99.90
44817;DHT22;30529;53.570;9.964;2023-03-24T02:50:55;10.90;99.90
44817;DHT22;30529;53.570;9.964;2023-03-24T02:59:24;10.90;99.90
44817;DHT22;30529;53.570;9.964;2023-03-24T03:02:04;10.90;99.90
44817;DHT22;30529;53.570;9.964;2023-03-24T03:04:44;10.90;99.90
44817;DHT22;30529;53.570;9.964;2023-03-24T03:07:17;10.90;99.90
44817;DHT22;30529;53.570;9.964;2023-03-24T03:09:53;10.90;99.90
44817;DHT22;30529;53.570;9.964;2023-03-24T03:12:22;10.90;99.90
44817;DHT22;30529;53.570;9.964;2023-03-24T03:14:57;11.00;99.90
44817;DHT22;30529;53.570;9.964;2023-03-24T03:17:28;11.00;99.90
44817;DHT22;30529;53.570;9.964;2023-03-24T03:19:59;11.00;99.90
44817;DHT22;30529;53.570;9.964;2023-03-24T03:22:38;11.00;99.90
44817;DHT22;30529;53.570;9.964;2023-03-24T03:25:08;11.00;99.90
44817;DHT22;30529;53.570;9.964;2023-03-24T03:27:37;11.00;99.90
44817;DHT22;30529;53.570;9.964;2023-03-24T03:30:07;11.00;99.90
44817;DHT22;30529;53.570;9.964;2023-03-24T03:32:37;11.00;99.90
44817;DHT22;30529;53.570;9.964;2023-03-24T03:35:29;11.00;99.90
44817;DHT22;30529;53.570;9.964;2023-03-24T03:38:15;11.00;99.90
44817;DHT22;30529;53.570;9.964;2023-03-24T03:40:54;11.10;99.90
44817;DHT22;30529;53.570;9.964;2023-03-24T03:43:21;11.10;99.90
44817;DHT22;30529;53.570;9.964;2023-03-24T03:45:47;11.10;99.90
44817;DHT22;30529;53.570;9.964;2023-03-24T03:48:15;11.10;99.90
44817;DHT22;30529;53.570;9.964;2023-03-24T03:50:41;11.20;99.90
44817;DHT22;30529;53.570;9.964;2023-03-24T03:53:08;11.20;99.90
44817;DHT22;30529;53.570;9.964;2023-03-24T03:55:36;11.10;99.90
44817;DHT22;30529;53.570;9.964;2023-03-24T03:58:03;11.20;99.90
44817;DHT22;30529;53.570;9.964;2023-03-24T04:00:29;11.20;99.90
44817;DHT22;30529;53.570;9.964;2023-03-24T04:05:40;11.20;99.90
44817;DHT22;30529;53.570;9.964;2023-03-24T04:08:19;11.20;99.90
44817;DHT22;30529;53.570;9.964;2023-03-24T04:13:45;11.30;99.90
44817;DHT22;30529;53.570;9.964;2023-03-24T04:19:08;11.30;99.90
44817;DHT22;30529;53.570;9.964;2023-03-24T04:22:02;11.40;99.90
44817;DHT22;30529;53.570;9.964;2023-03-24T04:30:04;11.40;99.90
44817;DHT22;30529;53.570;9.964;2023-03-24T04:32:42;11.40;99.90
44817;DHT22;30529;53.570;9.964;2023-03-24T04:35:23;11.40;99.90
44817;DHT22;30529;53.570;9.964;2023-03-24T04:38:19;11.50;99.90
44817;DHT22;30529;53.570;9.964;2023-03-24T04:40:50;11.50;99.90
44817;DHT22;30529;53.570;9.964;2023-03-24T04:43:19;11.50;99.90
44817;DHT22;30529;53.570;9.964;2023-03-24T04:45:47;11.40;99.90
44817;DHT22;30529;53.570;9.964;2023-03-24T04:48:16;11.50;99.90
44817;DHT22;30529;53.570;9.964;2023-03-24T04:51:06;11.50;99.90
44817;DHT22;30529;53.570;9.964;2023-03-24T04:53:33;11.50;99.90
44817;DHT22;30529;53.570;9.964;2023-03-24T04:56:29;11.50;99.90
44817;DHT22;30529;53.570;9.964;2023-03-24T04:58:55;11.50;99.90
44817;DHT22;30529;53.570;9.964;2023-03-24T05:01:25;11.50;99.90
44817;DHT22;30529;53.570;9.964;2023-03-24T05:03:56;11.40;99.90
44817;DHT22;30529;53.570;9.964;2023-03-24T05:06:22;11.50;99.90
44817;DHT22;30529;53.570;9.964;2023-03-24T05:08:49;11.40;99.90
44817;DHT22;30529;53.570;9.964;2023-03-24T05:11:18;11.50;99.90
44817;DHT22;30529;53.570;9.964;2023-03-24T05:13:45;11.50;99.90
44817;DHT22;30529;53.570;9.964;2023-03-24T05:16:12;11.50;99.90
44817;DHT22;30529;53.570;9.964;2023-03-24T05:18:38;11.50;99.90
44817;DHT22;30529;53.570;9.964;2023-03-24T05:21:05;11.50;99.90
44817;DHT22;30529;53.570;9.964;2023-03-24T05:23:31;11.60;99.90
44817;DHT22;30529;53.570;9.964;2023-03-24T05:25:57;11.60;99.90
44817;DHT22;30529;53.570;9.964;2023-03-24T05:28:23;11.60;99.90
44817;DHT22;30529;53.570;9.964;2023-03-24T05:30:49;11.60;99.90
44817;DHT22;30529;53.570;9.964;2023-03-24T05:33:15;11.60;99.90
44817;DHT22;30529;53.570;9.964;2023-03-24T05:35:42;11.60;99.90
44817;DHT22;30529;53.570;9.964;2023-03-24T05:38:08;11.60;99.90
44817;DHT22;30529;53.570;9.964;2023-03-24T05:40:35;11.70;99.90
44817;DHT22;30529;53.570;9.964;2023-03-24T05:43:02;11.60;99.90
44817;DHT22;30529;53.570;9.964;2023-03-24T05:45:28;11.70;99.90
44817;DHT22;30529;53.570;9.964;2023-03-24T05:47:55;11.70;99.90
44817;DHT22;30529;53.570;9.964;2023-03-24T05:50:21;11.70;99.90
44817;DHT22;30529;53.570;9.964;2023-03-24T05:52:49;11.70;99.90
44817;DHT22;30529;53.570;9.964;2023-03-24T05:55:15;11.70;99.90
44817;DHT22;30529;53.570;9.964;2023-03-24T05:57:41;11.70;99.90
44817;DHT22;30529;53.570;9.964;2023-03-24T06:00:09;11.70;99.90
44817;DHT22;30529;53.570;9.964;2023-03-24T06:02:40;11.70;99.90
44817;DHT22;30529;53.570;9.964;2023-03-24T06:05:06;11.70;99.90
44817;DHT22;30529;53.570;9.964;2023-03-24T06:07:33;11.70;99.90
44817;DHT22;30529;53.570;9.964;2023-03-24T06:09:59;11.70;99.90
44817;DHT22;30529;53.570;9.964;2023-03-24T06:12:28;11.70;99.90
44817;DHT22;30529;53.570;9.964;2023-03-24T06:14:56;11.80;99.90
44817;DHT22;30529;53.570;9.964;2023-03-24T06:17:22;11.80;99.90
44817;DHT22;30529;53.570;9.964;2023-03-24T06:19:49;11.80;99.90
44817;DHT22;30529;53.570;9.964;2023-03-24T06:22:16;11.90;99.90
44817;DHT22;30529;53.570;9.964;2023-03-24T06:24:42;11.80;99.90
44817;DHT22;30529;53.570;9.964;2023-03-24T06:27:10;11.90;99.90
44817;DHT22;30529;53.570;9.964;2023-03-24T06:29:36;11.90;99.90
44817;DHT22;30529;53.570;9.964;2023-03-24T06:32:03;11.90;99.90
44817;DHT22;30529;53.570;9.964;2023-03-24T06:34:30;11.90;99.90
44817;DHT22;30529;53.570;9.964;2023-03-24T06:36:57;12.00;99.90
44817;DHT22;30529;53.570;9.964;2023-03-24T06:39:23;12.00;99.90
44817;DHT22;30529;53.570;9.964;2023-03-24T06:41:48;12.00;99.90
44817;DHT22;30529;53.570;9.964;2023-03-24T06:44:14;12.00;99.90
44817;DHT22;30529;53.570;9.964;2023-03-24T06:46:41;12.00;99.90
44817;DHT22;30529;53.570;9.964;2023-03-24T06:49:07;12.00;99.90
44817;DHT22;30529;53.570;9.964;2023-03-24T06:51:33;12.00;99.90
44817;DHT22;30529;53.570;9.964;2023-03-24T06:53:59;12.00;99.90
44817;DHT22;30529;53.570;9.964;2023-03-24T06:56:25;12.00;99.90
44817;DHT22;30529;53.570;9.964;2023-03-24T06:58:52;12.10;99.90
44817;DHT22;30529;53.570;9.964;2023-03-24T07:01:18;12.20;99.90
44817;DHT22;30529;53.570;9.964;2023-03-24T07:03:45;12.20;99.90
44817;DHT22;30529;53.570;9.964;2023-03-24T07:06:11;12.20;99.90
44817;DHT22;30529;53.570;9.964;2023-03-24T07:08:37;12.10;99.90
44817;DHT22;30529;53.570;9.964;2023-03-24T07:11:03;12.10;99.90
44817;DHT22;30529;53.570;9.964;2023-03-24T07:13:29;12.10;99.90
44817;DHT22;30529;53.570;9.964;2023-03-24T07:15:55;12.10;99.90
44817;DHT22;30529;53.570;9.964;2023-03-24T07:18:21;12.10;99.90
44817;DHT22;30529;53.570;9.964;2023-03-24T07:20:47;12.10;99.90
44817;DHT22;30529;53.570;9.964;2023-03-24T07:23:13;12.20;99.90
44817;DHT22;30529;53.570;9.964;2023-03-24T07:25:40;12.20;99.90
44817;DHT22;30529;53.570;9.964;2023-03-24T07:28:06;12.40;99.90
44817;DHT22;30529;53.570;9.964;2023-03-24T07:30:33;12.60;99.90
44817;DHT22;30529;53.570;9.964;2023-03-24T07:33:03;12.70;99.90
44817;DHT22;30529;53.570;9.964;2023-03-24T07:35:31;12.70;99.90
44817;DHT22;30529;53.570;9.964;2023-03-24T07:37:58;12.60;99.90
44817;DHT22;30529;53.570;9.964;2023-03-24T07:40:24;12.50;99.90
44817;DHT22;30529;53.570;9.964;2023-03-24T07:42:50;12.50;99.90
44817;DHT22;30529;53.570;9.964;2023-03-24T07:45:16;12.40;99.90
44817;DHT22;30529;53.570;9.964;2023-03-24T07:47:44;12.50;99.90
44817;DHT22;30529;53.570;9.964;2023-03-24T07:50:11;12.50;99.90
44817;DHT22;30529;53.570;9.964;2023-03-24T07:52:39;12.20;99.90
44817;DHT22;30529;53.570;9.964;2023-03-24T07:55:07;12.00;99.90
44817;DHT22;30529;53.570;9.964;2023-03-24T07:57:40;11.90;99.90
44817;DHT22;30529;53.570;9.964;2023-03-24T08:00:09;11.80;99.90
44817;DHT22;30529;53.570;9.964;2023-03-24T08:02:40;11.70;99.90
44817;DHT22;30529;53.570;9.964;2023-03-24T08:05:10;11.70;99.90
44817;DHT22;30529;53.570;9.964;2023-03-24T08:07:47;11.60;99.90
44817;DHT22;30529;53.570;9.964;2023-03-24T08:10:22;11.50;99.90
44817;DHT22;30529;53.570;9.964;2023-03-24T08:12:49;11.50;99.90
44817;DHT22;30529;53.570;9.964;2023-03-24T08:15:16;11.50;99.90
44817;DHT22;30529;53.570;9.964;2023-03-24T08:17:43;11.50;99.90
44817;DHT22;30529;53.570;9.964;2023-03-24T08:20:11;11.60;99.90
44817;DHT22;30529;53.570;9.964;2023-03-24T08:22:41;11.80;99.90
44817;DHT22;30529;53.570;9.964;2023-03-24T08:25:09;12.00;99.90
44817;DHT22;30529;53.570;9.964;2023-03-24T08:27:36;12.30;99.90
44817;DHT22;30529;53.570;9.964;2023-03-24T08:30:05;12.50;99.90
44817;DHT22;30529;53.570;9.964;2023-03-24T08:32:32;12.70;99.90
44817;DHT22;30529;53.570;9.964;2023-03-24T08:34:58;12.80;99.90
44817;DHT22;30529;53.570;9.964;2023-03-24T08:37:24;12.70;99.90
44817;DHT22;30529;53.570;9.964;2023-03-24T08:39:50;12.70;99.90
44817;DHT22;30529;53.570;9.964;2023-03-24T08:42:16;12.70;99.90
44817;DHT22;30529;53.570;9.964;2023-03-24T08:44:44;12.60;99.90
44817;DHT22;30529;53.570;9.964;2023-03-24T08:47:10;12.80;99.90
44817;DHT22;30529;53.570;9.964;2023-03-24T08:49:36;12.90;99.90
44817;DHT22;30529;53.570;9.964;2023-03-24T08:52:02;13.00;99.90
44817;DHT22;30529;53.570;9.964;2023-03-24T08:54:28;13.10;99.90
44817;DHT22;30529;53.570;9.964;2023-03-24T08:56:54;13.20;99.90
44817;DHT22;30529;53.570;9.964;2023-03-24T08:59:20;13.30;99.90
44817;DHT22;30529;53.570;9.964;2023-03-24T09:01:46;13.20;99.90
44817;DHT22;30529;53.570;9.964;2023-03-24T09:04:12;13.00;99.90
44817;DHT22;30529;53.570;9.964;2023-03-24T09:06:38;12.90;99.90
44817;DHT22;30529;53.570;9.964;2023-03-24T09:09:04;13.10;99.90
44817;DHT22;30529;53.570;9.964;2023-03-24T09:11:30;12.90;99.90
44817;DHT22;30529;53.570;9.964;2023-03-24T09:13:56;13.00;99.90
44817;DHT22;30529;53.570;9.964;2023-03-24T09:16:22;13.00;99.90
44817;DHT22;30529;53.570;9.964;2023-03-24T09:18:49;12.90;99.90
44817;DHT22;30529;53.570;9.964;2023-03-24T09:21:15;13.00;99.90
44817;DHT22;30529;53.570;9.964;2023-03-24T09:23:41;12.90;99.90
44817;DHT22;30529;53.570;9.964;2023-03-24T09:26:07;12.80;99.90
44817;DHT22;30529;53.570;9.964;2023-03-24T09:28:33;12.60;99.90
44817;DHT22;30529;53.570;9.964;2023-03-24T09:31:02;12.60;99.90
44817;DHT22;30529;53.570;9.964;2023-03-24T09:33:29;12.50;99.90
44817;DHT22;30529;53.570;9.964;2023-03-24T09:35:57;12.60;99.90
44817;DHT22;30529;53.570;9.964;2023-03-24T09:38:24;12.70;99.90
44817;DHT22;30529;53.570;9.964;2023-03-24T09:40:54;12.70;99.90
44817;DHT22;30529;53.570;9.964;2023-03-24T09:45:56;12.80;99.90
44817;DHT22;30529;53.570;9.964;2023-03-24T09:48:39;13.10;99.90
44817;DHT22;30529;53.570;9.964;2023-03-24T09:51:28;13.30;99.90
44817;DHT22;30529;53.570;9.964;2023-03-24T09:57:03;13.10;99.90
44817;DHT22;30529;53.570;9.964;2023-03-24T09:59:39;13.20;99.90
44817;DHT22;30529;53.570;9.964;2023-03-24T10:02:28;13.30;99.90
44817;DHT22;30529;53.570;9.964;2023-03-24T10:04:56;13.20;99.90
44817;DHT22;30529;53.570;9.964;2023-03-24T10:07:37;13.10;99.90
44817;DHT22;30529;53.570;9.964;2023-03-24T10:10:18;13.20;99.90
44817;DHT22;30529;53.570;9.964;2023-03-24T10:12:47;13.40;99.90
44817;DHT22;30529;53.570;9.964;2023-03-24T10:15:25;13.40;99.90
44817;DHT22;30529;53.570;9.964;2023-03-24T10:18:09;13.40;99.90
44817;DHT22;30529;53.570;9.964;2023-03-24T10:20:49;13.60;99.90
44817;DHT22;30529;53.570;9.964;2023-03-24T10:23:35;13.90;99.90
44817;DHT22;30529;53.570;9.964;2023-03-24T10:29:01;14.30;99.90
44817;DHT22;30529;53.570;9.964;2023-03-24T10:31:31;14.10;99.90
44817;DHT22;30529;53.570;9.964;2023-03-24T10:33:59;14.00;99.90
44817;DHT22;30529;53.570;9.964;2023-03-24T10:36:26;14.00;99.90
44817;DHT22;30529;53.570;9.964;2023-03-24T10:38:54;13.90;99.90
44817;DHT22;30529;53.570;9.964;2023-03-24T10:41:23;13.90;99.90
44817;DHT22;30529;53.570;9.964;2023-03-24T10:43:51;13.60;99.90
44817;DHT22;30529;53.570;9.964;2023-03-24T10:46:20;13.60;99.90
44817;DHT22;30529;53.570;9.964;2023-03-24T10:48:49;13.90;99.90
44817;DHT22;30529;53.570;9.964;2023-03-24T10:51:29;14.00;99.90
44817;DHT22;30529;53.570;9.964;2023-03-24T10:54:31;14.10;99.90
44817;DHT22;30529;53.570;9.964;2023-03-24T10:59:49;14.10;99.90
44817;DHT22;30529;53.570;9.964;2023-03-24T11:02:31;13.80;99.90
44817;DHT22;30529;53.570;9.964;2023-03-24T11:05:01;13.70;99.90
44817;DHT22;30529;53.570;9.964;2023-03-24T11:07:37;13.80;99.90
44817;DHT22;30529;53.570;9.964;2023-03-24T11:10:26;13.80;99.90
44817;DHT22;30529;53.570;9.964;2023-03-24T11:15:20;13.90;99.90
44817;DHT22;30529;53.570;9.964;2023-03-24T11:20:32;14.10;99.90
44817;DHT22;30529;53.570;9.964;2023-03-24T11:23:07;14.40;99.90
44817;DHT22;30529;53.570;9.964;2023-03-24T11:25:36;14.30;99.90
44817;DHT22;30529;53.570;9.964;2023-03-24T11:28:08;14.00;99.90
44817;DHT22;30529;53.570;9.964;2023-03-24T11:30:50;13.90;99.90
44817;DHT22;30529;53.570;9.964;2023-03-24T11:33:20;13.80;99.90
44817;DHT22;30529;53.570;9.964;2023-03-24T11:35:47;13.60;99.90
44817;DHT22;30529;53.570;9.964;2023-03-24T11:38:18;13.50;99.90
44817;DHT22;30529;53.570;9.964;2023-03-24T11:40:55;13.40;99.90
44817;DHT22;30529;53.570;9.964;2023-03-24T11:43:26;13.30;99.90
44817;DHT22;30529;53.570;9.964;2023-03-24T11:46:12;13.30;99.90
44817;DHT22;30529;53.570;9.964;2023-03-24T11:49:08;13.40;99.90
44817;DHT22;30529;53.570;9.964;2023-03-24T11:51:37;13.60;99.90
44817;DHT22;30529;53.570;9.964;2023-03-24T11:54:08;13.80;99.90
44817;DHT22;30529;53.570;9.964;2023-03-24T11:56:40;13.70;99.90
44817;DHT22;30529;53.570;9.964;2023-03-24T11:59:50;13.50;99.90
44817;DHT22;30529;53.570;9.964;2023-03-24T12:02:32;13.20;99.90
44817;DHT22;30529;53.570;9.964;2023-03-24T12:08:03;13.10;99.90
44817;DHT22;30529;53.570;9.964;2023-03-24T12:11:07;13.10;99.90
44817;DHT22;30529;53.570;9.964;2023-03-24T12:13:47;13.10;99.90
44817;DHT22;30529;53.570;9.964;2023-03-24T12:16:33;13.20;99.90
44817;DHT22;30529;53.570;9.964;2023-03-24T12:27:52;13.10;99.90
44817;DHT22;30529;53.570;9.964;2023-03-24T12:33:20;13.00;99.90
44817;DHT22;30529;53.570;9.964;2023-03-24T12:38:58;12.90;99.90
44817;DHT22;30529;53.570;9.964;2023-03-24T12:44:20;12.80;99.90
44817;DHT22;30529;53.570;9.964;2023-03-24T12:49:36;13.00;99.90
44817;DHT22;30529;53.570;9.964;2023-03-24T12:54:58;13.00;99.90
44817;DHT22;30529;53.570;9.964;2023-03-24T12:57:41;13.00;99.90
44817;DHT22;30529;53.570;9.964;2023-03-24T13:00:17;13.00;99.90
44817;DHT22;30529;53.570;9.964;2023-03-24T13:03:01;13.00;99.90
44817;DHT22;30529;53.570;9.964;2023-03-24T13:05:31;13.10;99.90
44817;DHT22;30529;53.570;9.964;2023-03-24T13:08:10;13.10;99.90
44817;DHT22;30529;53.570;9.964;2023-03-24T13:10:39;13.10;99.90
44817;DHT22;30529;53.570;9.964;2023-03-24T13:13:19;13.20;99.90
44817;DHT22;30529;53.570;9.964;2023-03-24T13:21:05;13.50;99.90
44817;DHT22;30529;53.570;9.964;2023-03-24T13:26:37;14.10;99.90
44817;DHT22;30529;53.570;9.964;2023-03-24T13:40:23;14.30;99.90
44817;DHT22;30529;53.570;9.964;2023-03-24T13:42:55;14.20;99.90
44817;DHT22;30529;53.570;9.964;2023-03-24T13:45:38;14.30;99.90
44817;DHT22;30529;53.570;9.964;2023-03-24T13:50:37;14.40;99.90
44817;DHT22;30529;53.570;9.964;2023-03-24T13:53:07;14.50;99.90
44817;DHT22;30529;53.570;9.964;2023-03-24T13:55:38;14.30;99.90
44817;DHT22;30529;53.570;9.964;2023-03-24T13:58:10;14.10;99.90
44817;DHT22;30529;53.570;9.964;2023-03-24T14:01:04;14.10;99.90
44817;DHT22;30529;53.570;9.964;2023-03-24T14:03:42;14.10;99.90
44817;DHT22;30529;53.570;9.964;2023-03-24T14:06:09;14.00;99.90
44817;DHT22;30529;53.570;9.964;2023-03-24T14:19:43;13.70;99.90
44817;DHT22;30529;53.570;9.964;2023-03-24T14:22:31;13.70;99.90
44817;DHT22;30529;53.570;9.964;2023-03-24T14:24:59;13.80;99.90
44817;DHT22;30529;53.570;9.964;2023-03-24T14:27:40;13.80;99.90
44817;DHT22;30529;53.570;9.964;2023-03-24T14:32:59;13.80;99.90
44817;DHT22;30529;53.570;9.964;2023-03-24T14:35:38;13.80;99.90
44817;DHT22;30529;53.570;9.964;2023-03-24T14:40:44;13.90;99.90
44817;DHT22;30529;53.570;9.964;2023-03-24T14:43:25;13.90;99.90
44817;DHT22;30529;53.570;9.964;2023-03-24T14:45:57;13.90;99.90
44817;DHT22;30529;53.570;9.964;2023-03-24T14:50:59;14.00;99.90
44817;DHT22;30529;53.570;9.964;2023-03-24T14:53:26;13.90;99.90
44817;DHT22;30529;53.570;9.964;2023-03-24T14:55:52;13.80;99.90
44817;DHT22;30529;53.570;9.964;2023-03-24T14:58:34;13.80;99.90
44817;DHT22;30529;53.570;9.964;2023-03-24T15:01:03;13.80;99.90
44817;DHT22;30529;53.570;9.964;2023-03-24T15:03:54;13.70;99.90
44817;DHT22;30529;53.570;9.964;2023-03-24T15:06:23;13.60;99.90
44817;DHT22;30529;53.570;9.964;2023-03-24T15:08:54;13.60;99.90
44817;DHT22;30529;53.570;9.964;2023-03-24T15:11:30;13.60;99.90
44817;DHT22;30529;53.570;9.964;2023-03-24T15:13:59;13.70;99.90
44817;DHT22;30529;53.570;9.964;2023-03-24T15:16:30;13.70;99.90
44817;DHT22;30529;53.570;9.964;2023-03-24T15:21:29;13.70;99.90
44817;DHT22;30529;53.570;9.964;2023-03-24T15:23:56;13.90;99.90
44817;DHT22;30529;53.570;9.964;2023-03-24T15:26:24;13.90;99.90
44817;DHT22;30529;53.570;9.964;2023-03-24T15:28:55;13.90;99.90
44817;DHT22;30529;53.570;9.964;2023-03-24T15:31:23;13.80;99.90
44817;DHT22;30529;53.570;9.964;2023-03-24T15:33:51;13.60;99.90
44817;DHT22;30529;53.570;9.964;2023-03-24T15:36:21;13.60;99.90
44817;DHT22;30529;53.570;9.964;2023-03-24T15:38:49;13.50;99.90
44817;DHT22;30529;53.570;9.964;2023-03-24T15:41:21;13.50;99.90
44817;DHT22;30529;53.570;9.964;2023-03-24T15:43:52;13.50;99.90
44817;DHT22;30529;53.570;9.964;2023-03-24T15:46:27;13.40;99.90
44817;DHT22;30529;53.570;9.964;2023-03-24T15:48:55;13.40;99.90
44817;DHT22;30529;53.570;9.964;2023-03-24T15:51:45;13.40;99.90
44817;DHT22;30529;53.570;9.964;2023-03-24T15:54:22;13.40;99.90
44817;DHT22;30529;53.570;9.964;2023-03-24T15:57:11;13.50;99.90
44817;DHT22;30529;53.570;9.964;2023-03-24T15:59:43;13.60;99.90
44817;DHT22;30529;53.570;9.964;2023-03-24T16:02:18;13.70;99.90
44817;DHT22;30529;53.570;9.964;2023-03-24T16:04:46;13.70;99.90
44817;DHT22;30529;53.570;9.964;2023-03-24T16:07:25;13.70;99.90
44817;DHT22;30529;53.570;9.964;2023-03-24T16:09:56;13.60;99.90
44817;DHT22;30529;53.570;9.964;2023-03-24T16:12:24;13.50;99.90
44817;DHT22;30529;53.570;9.964;2023-03-24T16:14:50;13.40;99.90
44817;DHT22;30529;53.570;9.964;2023-03-24T16:17:16;13.40;99.90
44817;DHT22;30529;53.570;9.964;2023-03-24T16:19:41;13.50;99.90
44817;DHT22;30529;53.570;9.964;2023-03-24T16:22:10;13.50;99.90
44817;DHT22;30529;53.570;9.964;2023-03-24T16:24:36;13.50;99.90
44817;DHT22;30529;53.570;9.964;2023-03-24T16:27:02;13.50;99.90
44817;DHT22;30529;53.570;9.964;2023-03-24T16:29:28;13.60;99.90
44817;DHT22;30529;53.570;9.964;2023-03-24T16:31:55;13.80;99.90
44817;DHT22;30529;53.570;9.964;2023-03-24T16:34:25;13.70;99.90
44817;DHT22;30529;53.570;9.964;2023-03-24T16:36:52;13.60;99.90
44817;DHT22;30529;53.570;9.964;2023-03-24T16:39:24;13.60;99.90
44817;DHT22;30529;53.570;9.964;2023-03-24T16:41:50;13.60;99.90
44817;DHT22;30529;53.570;9.964;2023-03-24T16:44:17;13.60;99.90
44817;DHT22;30529;53.570;9.964;2023-03-24T16:46:44;13.50;99.90
44817;DHT22;30529;53.570;9.964;2023-03-24T16:49:13;13.40;99.90
44817;DHT22;30529;53.570;9.964;2023-03-24T16:51:40;13.40;99.90
44817;DHT22;30529;53.570;9.964;2023-03-24T16:54:06;13.40;99.90
44817;DHT22;30529;53.570;9.964;2023-03-24T16:56:35;13.30;99.90
44817;DHT22;30529;53.570;9.964;2023-03-24T16:59:01;13.20;99.90
44817;DHT22;30529;53.570;9.964;2023-03-24T17:01:30;13.10;99.90
44817;DHT22;30529;53.570;9.964;2023-03-24T17:04:00;13.10;99.90
44817;DHT22;30529;53.570;9.964;2023-03-24T17:06:28;13.10;99.90
44817;DHT22;30529;53.570;9.964;2023-03-24T17:08:54;13.10;99.90
44817;DHT22;30529;53.570;9.964;2023-03-24T17:11:32;13.00;99.90
44817;DHT22;30529;53.570;9.964;2023-03-24T17:13:59;13.10;99.90
44817;DHT22;30529;53.570;9.964;2023-03-24T17:16:33;13.00;99.90
44817;DHT22;30529;53.570;9.964;2023-03-24T17:19:07;12.90;99.90
44817;DHT22;30529;53.570;9.964;2023-03-24T17:21:36;12.90;99.90
44817;DHT22;30529;53.570;9.964;2023-03-24T17:24:03;12.90;99.90
44817;DHT22;30529;53.570;9.964;2023-03-24T17:26:31;13.00;99.90
44817;DHT22;30529;53.570;9.964;2023-03-24T17:28:57;13.00;99.90
44817;DHT22;30529;53.570;9.964;2023-03-24T17:31:23;13.00;99.90
44817;DHT22;30529;53.570;9.964;2023-03-24T17:33:49;12.90;99.90
44817;DHT22;30529;53.570;9.964;2023-03-24T17:36:16;12.70;99.90
44817;DHT22;30529;53.570;9.964;2023-03-24T17:38:42;12.60;99.90
44817;DHT22;30529;53.570;9.964;2023-03-24T17:41:08;12.50;99.90
44817;DHT22;30529;53.570;9.964;2023-03-24T17:43:34;12.30;99.90
44817;DHT22;30529;53.570;9.964;2023-03-24T17:46:01;12.20;99.90
44817;DHT22;30529;53.570;9.964;2023-03-24T17:48:28;12.20;99.90
44817;DHT22;30529;53.570;9.964;2023-03-24T17:50:54;12.10;99.90
44817;DHT22;30529;53.570;9.964;2023-03-24T17:53:22;12.00;99.90
44817;DHT22;30529;53.570;9.964;2023-03-24T17:55:53;12.00;99.90
44817;DHT22;30529;53.570;9.964;2023-03-24T17:58:20;11.90;99.90
44817;DHT22;30529;53.570;9.964;2023-03-24T18:00:46;11.90;99.90